createdAt,value
2022-10-07T00:00:43.580Z,3.40
2022-10-07T00:03:45.536Z,3.30
2022-10-07T00:06:47.517Z,2.53
2022-10-07T00:09:49.859Z,3.50
2022-10-07T00:12:51.963Z,3.10
2022-10-07T00:15:53.951Z,3.70
2022-10-07T00:18:57.794Z,3.30
2022-10-07T00:21:59.864Z,3.97
2022-10-07T00:25:01.901Z,4.03
2022-10-07T00:28:05.407Z,3.97
2022-10-07T00:31:10.755Z,4.13
2022-10-07T00:34:12.995Z,3.90
2022-10-07T00:37:14.814Z,3.07
2022-10-07T00:40:16.918Z,3.50
2022-10-07T00:43:24.599Z,3.67
2022-10-07T00:46:29.860Z,3.57
2022-10-07T00:49:46.464Z,3.90
2022-10-07T00:52:52.850Z,3.97
2022-10-07T00:55:58.114Z,4.13
2022-10-07T00:59:00.244Z,3.80
2022-10-07T01:02:02.156Z,4.07
2022-10-07T01:05:06.954Z,3.40
2022-10-07T01:08:08.884Z,3.10
2022-10-07T01:11:34.299Z,3.67
2022-10-07T01:14:51.333Z,3.47
2022-10-07T01:17:53.544Z,4.17
2022-10-07T01:21:19.234Z,4.07
2022-10-07T01:24:26.216Z,3.90
2022-10-07T01:27:28.181Z,3.63
2022-10-07T01:30:32.501Z,3.90
2022-10-07T01:33:35.563Z,3.83
2022-10-07T01:36:38.480Z,3.40
2022-10-07T01:39:44.515Z,3.10
2022-10-07T01:42:46.927Z,3.33
2022-10-07T01:45:51.385Z,3.13
2022-10-07T01:48:54.572Z,3.47
2022-10-07T01:52:25.115Z,3.90
2022-10-07T01:55:38.461Z,3.53
2022-10-07T01:58:57.511Z,3.00
2022-10-07T02:02:11.716Z,3.67
2022-10-07T02:05:35.781Z,3.57
2022-10-07T02:08:42.770Z,3.30
2022-10-07T02:11:45.931Z,3.60
2022-10-07T02:15:04.402Z,3.30
2022-10-07T02:18:08.065Z,4.00
2022-10-07T02:21:11.146Z,3.90
2022-10-07T02:24:14.047Z,3.50
2022-10-07T02:27:18.875Z,3.60
2022-10-07T02:30:21.496Z,3.27
2022-10-07T02:33:25.291Z,3.00
2022-10-07T02:36:31.601Z,3.60
2022-10-07T02:39:33.892Z,3.90
2022-10-07T02:42:40.348Z,3.60
2022-10-07T02:45:52.149Z,4.17
2022-10-07T02:49:00.098Z,3.33
2022-10-07T02:52:05.996Z,3.23
2022-10-07T02:55:10.956Z,3.20
2022-10-07T02:58:13.475Z,3.20
2022-10-07T03:01:18.674Z,3.30
2022-10-07T03:04:21.926Z,5.80
2022-10-07T03:07:25.511Z,3.17
2022-10-07T03:10:29.180Z,3.10
2022-10-07T03:13:31.491Z,3.37
2022-10-07T03:16:34.306Z,2.83
2022-10-07T03:19:36.631Z,3.73
2022-10-07T03:22:39.421Z,3.50
2022-10-07T03:25:41.318Z,5.27
2022-10-07T03:28:44.262Z,4.63
2022-10-07T03:31:46.244Z,4.20
2022-10-07T03:34:48.166Z,3.60
2022-10-07T03:37:50.020Z,3.47
2022-10-07T03:40:52.193Z,3.40
2022-10-07T03:43:56.881Z,3.50
2022-10-07T03:46:59.176Z,2.73
2022-10-07T03:50:01.267Z,3.50
2022-10-07T03:53:03.216Z,4.00
2022-10-07T03:56:05.189Z,4.37
2022-10-07T03:59:07.107Z,4.10
2022-10-07T04:02:09.093Z,3.60
2022-10-07T04:05:11.847Z,3.97
2022-10-07T04:08:16.014Z,3.50
2022-10-07T04:11:18.661Z,3.40
2022-10-07T04:14:20.597Z,4.37
2022-10-07T04:17:23.836Z,3.47
2022-10-07T04:20:26.646Z,3.30
2022-10-07T04:23:28.796Z,4.17
2022-10-07T04:26:31.477Z,3.23
2022-10-07T04:29:38.302Z,2.90
2022-10-07T04:32:41.107Z,3.00
2022-10-07T04:35:44.267Z,3.53
2022-10-07T04:38:51.212Z,3.53
2022-10-07T04:41:54.902Z,2.93
2022-10-07T04:44:56.797Z,2.70
2022-10-07T04:47:59.126Z,2.90
2022-10-07T04:51:02.571Z,3.33
2022-10-07T04:54:04.551Z,3.70
2022-10-07T04:57:06.518Z,3.50
2022-10-07T05:00:09.526Z,3.03
2022-10-07T05:03:15.396Z,3.50
2022-10-07T05:06:17.271Z,3.57
2022-10-07T05:09:19.153Z,3.40
2022-10-07T05:12:21.370Z,3.10
2022-10-07T05:15:23.923Z,3.33
2022-10-07T05:18:27.745Z,3.00
2022-10-07T05:21:29.656Z,3.10
2022-10-07T05:24:32.035Z,3.37
2022-10-07T05:27:34.356Z,3.30
2022-10-07T05:30:36.236Z,3.40
2022-10-07T05:33:39.340Z,3.63
2022-10-07T05:36:42.923Z,3.87
2022-10-07T05:39:44.921Z,3.30
2022-10-07T05:42:46.816Z,3.50
2022-10-07T05:45:48.682Z,3.40
2022-10-07T05:48:52.667Z,3.77
2022-10-07T05:51:54.685Z,3.40
2022-10-07T05:54:57.955Z,3.47
2022-10-07T05:58:01.030Z,3.90
2022-10-07T06:01:07.719Z,4.03
2022-10-07T06:04:13.036Z,3.90
2022-10-07T06:07:20.376Z,3.10
2022-10-07T06:10:42.116Z,3.67
2022-10-07T06:13:48.416Z,3.33
2022-10-07T06:16:50.415Z,3.50
2022-10-07T06:19:52.296Z,3.37
2022-10-07T06:22:55.550Z,3.00
2022-10-07T06:26:07.349Z,2.83
2022-10-07T06:29:09.334Z,2.83
2022-10-07T06:32:11.651Z,2.93
2022-10-07T06:35:13.739Z,3.20
2022-10-07T06:38:17.376Z,3.60
2022-10-07T06:41:22.051Z,3.40
2022-10-07T06:44:23.903Z,3.80
2022-10-07T06:47:25.882Z,3.20
2022-10-07T06:50:27.749Z,3.00
2022-10-07T06:53:31.370Z,3.93
2022-10-07T06:56:34.026Z,2.87
2022-10-07T06:59:35.922Z,3.10
2022-10-07T07:02:37.831Z,3.07
2022-10-07T07:05:42.878Z,3.63
2022-10-07T07:08:50.278Z,3.10
2022-10-07T07:11:56.179Z,2.57
2022-10-07T07:15:00.566Z,2.67
2022-10-07T07:18:04.351Z,2.60
2022-10-07T07:21:08.184Z,3.03
2022-10-07T07:24:10.349Z,2.90
2022-10-07T07:27:14.639Z,3.13
2022-10-07T07:30:22.327Z,2.67
2022-10-07T07:33:24.216Z,3.27
2022-10-07T07:36:26.415Z,3.20
2022-10-07T07:39:28.270Z,3.53
2022-10-07T07:42:30.191Z,3.27
2022-10-07T07:45:33.500Z,3.90
2022-10-07T07:48:35.367Z,3.90
2022-10-07T07:51:37.658Z,4.23
2022-10-07T07:54:42.344Z,5.43
2022-10-07T07:57:44.444Z,4.40
2022-10-07T08:00:59.011Z,3.40
2022-10-07T08:04:01.796Z,3.83
2022-10-07T08:07:04.108Z,3.17
2022-10-07T08:10:06.760Z,3.67
2022-10-07T08:13:10.480Z,3.63
2022-10-07T08:16:17.164Z,14.27
2022-10-07T08:19:20.445Z,6.63
2022-10-07T08:22:22.955Z,3.30
2022-10-07T08:25:25.085Z,3.17
2022-10-07T08:28:28.543Z,3.50
2022-10-07T08:31:31.314Z,2.97
2022-10-07T08:34:33.610Z,3.57
2022-10-07T08:37:35.576Z,3.67
2022-10-07T08:40:37.629Z,3.43
2022-10-07T08:43:52.451Z,3.20
2022-10-07T08:47:06.860Z,3.37
2022-10-07T08:50:43.151Z,3.80
2022-10-07T08:53:49.411Z,3.13
2022-10-07T08:56:51.353Z,3.20
2022-10-07T08:59:58.656Z,3.67
2022-10-07T09:03:24.763Z,4.30
2022-10-07T09:06:30.340Z,3.80
2022-10-07T09:09:43.260Z,4.60
2022-10-07T09:12:50.394Z,4.07
2022-10-07T09:16:07.567Z,4.30
2022-10-07T09:19:22.041Z,4.30
2022-10-07T09:22:36.836Z,3.60
2022-10-07T09:25:44.039Z,5.10
2022-10-07T09:28:45.991Z,6.20
2022-10-07T09:31:49.704Z,6.07
2022-10-07T09:34:52.590Z,6.40
2022-10-07T09:38:09.683Z,7.40
2022-10-07T09:41:35.465Z,7.77
2022-10-07T09:44:40.361Z,7.20
2022-10-07T09:47:42.364Z,6.93
2022-10-07T09:50:45.336Z,7.53
2022-10-07T09:54:03.248Z,7.80
2022-10-07T09:57:06.587Z,7.63
2022-10-07T10:00:14.450Z,8.00
2022-10-07T10:03:37.528Z,7.87
2022-10-07T10:06:46.556Z,7.77
2022-10-07T10:09:53.046Z,7.03
2022-10-07T10:12:56.962Z,7.53
2022-10-07T10:16:00.019Z,8.57
2022-10-07T10:19:21.857Z,7.27
2022-10-07T10:22:27.002Z,8.10
2022-10-07T10:26:21.938Z,7.53
2022-10-07T10:29:41.811Z,7.83
2022-10-07T10:33:04.406Z,6.90
2022-10-07T10:36:19.013Z,7.37
2022-10-07T10:39:44.045Z,6.50
2022-10-07T10:42:48.759Z,7.13
2022-10-07T10:46:12.475Z,7.97
2022-10-07T10:49:44.795Z,8.00
2022-10-07T10:53:19.596Z,7.63
2022-10-07T10:56:59.275Z,8.13
2022-10-07T11:00:13.969Z,8.30
2022-10-07T11:03:25.406Z,8.33
2022-10-07T11:06:28.841Z,8.47
2022-10-07T11:09:38.796Z,8.43
2022-10-07T11:12:44.070Z,8.60
2022-10-07T11:15:50.378Z,8.67
2022-10-07T11:19:14.756Z,9.30
2022-10-07T11:22:19.446Z,9.70
2022-10-07T11:25:29.173Z,8.50
2022-10-07T11:28:33.835Z,8.80
2022-10-07T11:31:42.662Z,8.70
2022-10-07T11:34:56.390Z,9.57
2022-10-07T11:38:10.233Z,8.87
2022-10-07T11:41:15.097Z,9.10
2022-10-07T11:44:31.505Z,10.10
2022-10-07T11:47:47.792Z,9.13
2022-10-07T11:50:56.025Z,9.23
2022-10-07T11:54:01.286Z,9.43
2022-10-07T11:57:04.353Z,9.53
2022-10-07T12:00:09.009Z,8.50
2022-10-07T12:03:19.948Z,8.80
2022-10-07T12:06:21.937Z,8.70
2022-10-07T12:10:03.744Z,7.83
2022-10-07T12:13:11.543Z,9.30
2022-10-07T12:16:28.496Z,7.90
2022-10-07T12:19:32.939Z,9.00
2022-10-07T12:22:35.994Z,8.90
2022-10-07T12:25:42.453Z,8.63
2022-10-07T12:28:47.653Z,9.33
2022-10-07T12:31:50.485Z,9.50
2022-10-07T12:34:52.448Z,8.40
2022-10-07T12:38:14.386Z,8.53
2022-10-07T12:41:40.935Z,7.53
2022-10-07T12:44:51.698Z,8.30
2022-10-07T12:47:56.555Z,8.20
2022-10-07T12:50:59.266Z,8.07
2022-10-07T12:54:01.706Z,7.83
2022-10-07T12:57:12.302Z,8.30
2022-10-07T13:00:18.857Z,7.73
2022-10-07T13:03:43.871Z,8.20
2022-10-07T13:07:13.241Z,8.83
2022-10-07T13:10:36.660Z,8.03
2022-10-07T13:13:56.339Z,8.33
2022-10-07T13:17:19.351Z,8.00
2022-10-07T13:20:27.339Z,8.10
2022-10-07T13:23:31.377Z,8.13
2022-10-07T13:26:33.633Z,7.80
2022-10-07T13:29:36.056Z,8.57
2022-10-07T13:32:37.944Z,8.23
2022-10-07T13:35:40.069Z,8.73
2022-10-07T13:38:42.007Z,7.50
2022-10-07T13:41:45.885Z,9.13
2022-10-07T13:44:47.746Z,8.03
2022-10-07T13:47:49.720Z,7.67
2022-10-07T13:50:54.151Z,8.13
2022-10-07T13:53:59.016Z,8.00
2022-10-07T13:57:02.828Z,7.37
2022-10-07T14:00:05.411Z,5.93
2022-10-07T14:03:18.437Z,5.80
2022-10-07T14:06:48.760Z,6.30
2022-10-07T14:09:56.716Z,5.53
2022-10-07T14:13:03.491Z,5.53
2022-10-07T14:16:05.591Z,5.68
2022-10-07T14:19:20.012Z,5.28
2022-10-07T14:22:30.423Z,5.97
2022-10-07T14:25:48.519Z,5.90
2022-10-07T14:28:50.459Z,6.25
2022-10-07T14:32:30.545Z,7.07
2022-10-07T14:35:34.202Z,7.38
2022-10-07T14:38:36.138Z,6.65
2022-10-07T14:41:38.055Z,7.18
2022-10-07T14:44:44.327Z,7.33
2022-10-07T14:47:46.410Z,6.67
2022-10-07T14:50:48.430Z,6.97
2022-10-07T14:53:52.617Z,8.27
2022-10-07T14:56:54.516Z,7.90
2022-10-07T14:59:56.832Z,8.93
2022-10-07T15:02:58.795Z,9.03
2022-10-07T15:06:00.726Z,9.70
2022-10-07T15:09:03.100Z,8.80
2022-10-07T15:12:06.196Z,9.57
2022-10-07T15:15:08.884Z,9.70
2022-10-07T15:18:11.844Z,9.17
2022-10-07T15:21:14.304Z,7.70
2022-10-07T15:24:16.217Z,5.97
2022-10-07T15:27:19.711Z,5.60
2022-10-07T15:30:21.611Z,6.00
2022-10-07T15:33:23.561Z,5.80
2022-10-07T15:36:27.481Z,6.20
2022-10-07T15:39:29.744Z,6.27
2022-10-07T15:42:32.011Z,6.37
2022-10-07T15:45:33.936Z,5.90
2022-10-07T15:48:35.776Z,6.27
2022-10-07T15:51:38.294Z,6.40
2022-10-07T15:54:40.229Z,6.80
2022-10-07T15:57:42.201Z,6.43
2022-10-07T16:00:46.107Z,5.83
2022-10-07T16:03:50.147Z,5.77
2022-10-07T16:06:52.272Z,5.23
2022-10-07T16:09:54.365Z,5.67
2022-10-07T16:12:56.167Z,5.30
2022-10-07T16:16:08.825Z,5.60
2022-10-07T16:19:11.801Z,5.37
2022-10-07T16:22:14.710Z,5.20
2022-10-07T16:25:16.708Z,5.77
2022-10-07T16:28:37.406Z,5.30
2022-10-07T16:31:41.243Z,6.70
2022-10-07T16:34:44.670Z,7.03
2022-10-07T16:37:51.471Z,5.60
2022-10-07T16:40:55.079Z,5.13
2022-10-07T16:43:57.840Z,5.13
2022-10-07T16:47:01.425Z,4.90
2022-10-07T16:50:06.456Z,5.60
2022-10-07T16:53:13.346Z,5.23
2022-10-07T16:56:16.911Z,6.17
2022-10-07T16:59:24.025Z,6.30
2022-10-07T17:02:30.335Z,6.30
2022-10-07T17:05:32.276Z,6.20
2022-10-07T17:08:39.957Z,6.40
2022-10-07T17:11:44.856Z,5.30
2022-10-07T17:14:46.961Z,6.03
2022-10-07T17:17:49.502Z,6.37
2022-10-07T17:20:51.693Z,6.73
2022-10-07T17:23:58.478Z,5.93
2022-10-07T17:27:00.542Z,6.03
2022-10-07T17:30:02.474Z,6.27
2022-10-07T17:33:04.705Z,6.87
2022-10-07T17:36:07.980Z,7.30
2022-10-07T17:39:10.126Z,7.33
2022-10-07T17:42:11.997Z,6.87
2022-10-07T17:45:13.859Z,6.87
2022-10-07T17:48:15.745Z,6.80
2022-10-07T17:51:19.191Z,6.20
2022-10-07T17:54:21.106Z,7.00
2022-10-07T17:57:23.712Z,6.33
2022-10-07T18:00:25.656Z,6.73
2022-10-07T18:03:27.485Z,6.60
2022-10-07T18:06:31.386Z,6.77
2022-10-07T18:09:33.212Z,5.83
2022-10-07T18:12:53.619Z,6.23
2022-10-07T18:16:02.474Z,6.47
2022-10-07T18:19:05.315Z,6.57
2022-10-07T18:22:07.596Z,7.20
2022-10-07T18:25:12.380Z,7.37
2022-10-07T18:28:14.719Z,7.13
2022-10-07T18:31:18.274Z,7.03
2022-10-07T18:34:20.247Z,6.13
2022-10-07T18:37:23.953Z,7.40
2022-10-07T18:40:25.960Z,5.60
2022-10-07T18:43:28.078Z,5.47
2022-10-07T18:46:30.135Z,5.50
2022-10-07T18:49:32.141Z,6.07
2022-10-07T18:52:33.976Z,5.37
2022-10-07T18:55:39.591Z,6.20
2022-10-07T18:58:43.436Z,5.90
2022-10-07T19:01:49.334Z,6.10
2022-10-07T19:04:53.500Z,5.90
2022-10-07T19:07:58.322Z,6.53
2022-10-07T19:11:12.758Z,6.10
2022-10-07T19:14:15.655Z,6.30
2022-10-07T19:17:17.596Z,6.87
2022-10-07T19:20:19.570Z,8.03
2022-10-07T19:23:21.467Z,7.27
2022-10-07T19:26:27.209Z,7.87
2022-10-07T19:29:29.638Z,7.33
2022-10-07T19:32:31.556Z,5.30
2022-10-07T19:35:34.537Z,4.77
2022-10-07T19:38:40.959Z,4.70
2022-10-07T19:41:44.239Z,5.50
2022-10-07T19:44:46.791Z,6.20
2022-10-07T19:47:49.371Z,6.93
2022-10-07T19:50:57.361Z,6.50
2022-10-07T19:54:01.193Z,6.63
2022-10-07T19:57:04.263Z,6.00
2022-10-07T20:00:06.947Z,5.77
2022-10-07T20:03:10.130Z,5.07
2022-10-07T20:06:12.087Z,5.07
2022-10-07T20:09:17.775Z,5.20
2022-10-07T20:12:19.717Z,5.47
2022-10-07T20:15:23.661Z,5.17
2022-10-07T20:18:25.547Z,5.30
2022-10-07T20:21:28.230Z,5.03
2022-10-07T20:24:30.057Z,5.40
2022-10-07T20:27:33.059Z,4.90
2022-10-07T20:30:35.197Z,5.20
2022-10-07T20:33:40.222Z,5.27
2022-10-07T20:36:42.388Z,4.73
2022-10-07T20:40:02.963Z,4.83
2022-10-07T20:43:04.784Z,4.10
2022-10-07T20:46:07.089Z,4.27
2022-10-07T20:49:23.712Z,4.30
2022-10-07T20:52:27.870Z,5.00
2022-10-07T20:55:32.992Z,5.20
2022-10-07T20:58:38.281Z,5.23
2022-10-07T21:01:40.978Z,7.50
2022-10-07T21:04:44.816Z,6.67
2022-10-07T21:07:49.194Z,5.73
2022-10-07T21:10:53.157Z,5.17
2022-10-07T21:13:56.295Z,4.27
2022-10-07T21:16:59.151Z,4.47
2022-10-07T21:20:00.976Z,4.57
2022-10-07T21:23:03.356Z,4.73
2022-10-07T21:26:07.721Z,4.40
2022-10-07T21:29:14.430Z,4.33
2022-10-07T21:32:16.352Z,4.87
2022-10-07T21:35:18.740Z,4.70
2022-10-07T21:38:20.741Z,4.50
2022-10-07T21:41:27.920Z,4.83
2022-10-07T21:44:32.441Z,4.07
2022-10-07T21:47:34.302Z,5.10
2022-10-07T21:50:36.191Z,4.53
2022-10-07T21:53:38.354Z,3.93
2022-10-07T21:56:40.302Z,4.13
2022-10-07T21:59:42.299Z,4.10
2022-10-07T22:02:44.472Z,3.83
2022-10-07T22:05:47.320Z,3.90
2022-10-07T22:08:52.018Z,3.50
2022-10-07T22:11:58.215Z,4.57
2022-10-07T22:15:00.093Z,4.10
2022-10-07T22:18:02.016Z,3.73
2022-10-07T22:21:15.797Z,4.03
2022-10-07T22:24:17.873Z,5.30
2022-10-07T22:27:19.817Z,3.90
2022-10-07T22:30:21.811Z,4.70
2022-10-07T22:33:23.830Z,5.47
2022-10-07T22:36:26.820Z,4.30
2022-10-07T22:39:29.400Z,3.83
2022-10-07T22:42:32.152Z,3.60
2022-10-07T22:45:36.456Z,4.27
2022-10-07T22:48:39.392Z,3.97
2022-10-07T22:51:42.734Z,4.17
2022-10-07T22:54:44.915Z,4.97
2022-10-07T22:57:47.238Z,4.40
2022-10-07T23:00:51.907Z,3.80
2022-10-07T23:03:55.002Z,3.80
2022-10-07T23:06:57.305Z,3.60
2022-10-07T23:09:59.139Z,3.40
2022-10-07T23:13:03.766Z,3.70
2022-10-07T23:16:12.385Z,3.60
2022-10-07T23:19:14.625Z,4.07
2022-10-07T23:22:16.485Z,5.03
2022-10-07T23:25:18.511Z,4.23
2022-10-07T23:28:22.314Z,4.30
2022-10-07T23:31:27.828Z,4.20
2022-10-07T23:34:29.772Z,4.30
2022-10-07T23:37:31.766Z,3.90
2022-10-07T23:40:33.905Z,3.83
2022-10-07T23:43:35.871Z,3.23
2022-10-07T23:46:37.936Z,3.20
2022-10-07T23:49:40.011Z,4.00
2022-10-07T23:52:41.921Z,4.27
2022-10-07T23:55:51.173Z,3.70
2022-10-07T23:58:53.137Z,3.30
